sensor_id;sensor_type;location;lat;lon;timestamp;P1;durP1;ratioP1;P2;durP2;ratioP2
54464;SDS011;40374;49.480;20.016;2023-02-01T20:08:58;17.63;;;9.07;;
54464;SDS011;40374;49.480;20.016;2023-02-01T20:11:26;25.83;;;11.13;;
54464;SDS011;40374;49.480;20.016;2023-02-01T20:13:57;23.70;;;13.10;;
54464;SDS011;40374;49.480;20.016;2023-02-01T20:16:27;24.77;;;10.70;;
54464;SDS011;40374;49.480;20.016;2023-02-01T20:18:54;17.38;;;7.30;;
54464;SDS011;40374;49.480;20.016;2023-02-01T20:21:21;16.42;;;7.07;;
54464;SDS011;40374;49.480;20.016;2023-02-01T20:23:51;19.23;;;9.52;;
54464;SDS011;40374;49.480;20.016;2023-02-01T20:26:19;17.35;;;8.50;;
54464;SDS011;40374;49.480;20.016;2023-02-01T20:28:50;31.13;;;11.48;;
54464;SDS011;40374;49.480;20.016;2023-02-01T20:31:17;21.25;;;10.07;;
54464;SDS011;40374;49.480;20.016;2023-02-01T20:33:45;37.65;;;15.52;;
54464;SDS011;40374;49.480;20.016;2023-02-01T20:36:12;39.53;;;15.85;;
54464;SDS011;40374;49.480;20.016;2023-02-01T20:38:39;38.00;;;15.63;;
54464;SDS011;40374;49.480;20.016;2023-02-01T20:41:07;33.95;;;15.02;;
54464;SDS011;40374;49.480;20.016;2023-02-01T20:43:35;25.63;;;9.52;;
54464;SDS011;40374;49.480;20.016;2023-02-01T20:46:02;28.38;;;11.70;;
54464;SDS011;40374;49.480;20.016;2023-02-01T20:48:30;26.88;;;10.88;;
54464;SDS011;40374;49.480;20.016;2023-02-01T20:50:58;36.08;;;14.52;;
54464;SDS011;40374;49.480;20.016;2023-02-01T20:53:27;36.65;;;15.75;;
54464;SDS011;40374;49.480;20.016;2023-02-01T20:55:55;48.95;;;21.70;;
54464;SDS011;40374;49.480;20.016;2023-02-01T20:58:24;77.93;;;31.25;;
54464;SDS011;40374;49.480;20.016;2023-02-01T21:00:54;78.03;;;27.80;;
54464;SDS011;40374;49.480;20.016;2023-02-01T21:03:23;43.03;;;18.17;;
54464;SDS011;40374;49.480;20.016;2023-02-01T21:05:53;41.47;;;19.10;;
54464;SDS011;40374;49.480;20.016;2023-02-01T21:08:23;42.30;;;16.10;;
54464;SDS011;40374;49.480;20.016;2023-02-01T21:10:57;43.45;;;12.95;;
54464;SDS011;40374;49.480;20.016;2023-02-01T21:13:24;28.92;;;10.23;;
54464;SDS011;40374;49.480;20.016;2023-02-01T21:15:52;27.05;;;14.82;;
54464;SDS011;40374;49.480;20.016;2023-02-01T21:18:19;17.63;;;10.85;;
54464;SDS011;40374;49.480;20.016;2023-02-01T21:20:47;22.63;;;9.98;;
54464;SDS011;40374;49.480;20.016;2023-02-01T21:23:15;18.60;;;8.65;;
54464;SDS011;40374;49.480;20.016;2023-02-01T21:25:43;18.38;;;7.10;;
54464;SDS011;40374;49.480;20.016;2023-02-01T21:28:10;12.80;;;5.63;;
54464;SDS011;40374;49.480;20.016;2023-02-01T21:30:38;12.70;;;4.75;;
54464;SDS011;40374;49.480;20.016;2023-02-01T21:33:05;16.27;;;5.85;;
54464;SDS011;40374;49.480;20.016;2023-02-01T21:35:33;23.67;;;9.10;;
54464;SDS011;40374;49.480;20.016;2023-02-01T21:38:01;19.95;;;7.22;;
54464;SDS011;40374;49.480;20.016;2023-02-01T21:40:28;19.35;;;9.70;;
54464;SDS011;40374;49.480;20.016;2023-02-01T21:42:55;24.30;;;9.68;;
54464;SDS011;40374;49.480;20.016;2023-02-01T21:45:23;17.00;;;6.53;;
54464;SDS011;40374;49.480;20.016;2023-02-01T21:47:50;18.15;;;6.82;;
54464;SDS011;40374;49.480;20.016;2023-02-01T21:50:18;20.00;;;9.68;;
54464;SDS011;40374;49.480;20.016;2023-02-01T21:52:46;27.70;;;12.68;;
54464;SDS011;40374;49.480;20.016;2023-02-01T21:55:13;28.92;;;12.32;;
54464;SDS011;40374;49.480;20.016;2023-02-01T21:57:40;21.70;;;9.73;;
54464;SDS011;40374;49.480;20.016;2023-02-01T22:00:08;18.55;;;7.65;;
54464;SDS011;40374;49.480;20.016;2023-02-01T22:02:38;20.27;;;9.38;;
54464;SDS011;40374;49.480;20.016;2023-02-01T22:05:06;15.93;;;7.30;;
54464;SDS011;40374;49.480;20.016;2023-02-01T22:07:33;21.25;;;6.47;;
54464;SDS011;40374;49.480;20.016;2023-02-01T22:10:02;14.05;;;5.93;;
54464;SDS011;40374;49.480;20.016;2023-02-01T22:12:29;19.60;;;8.35;;
54464;SDS011;40374;49.480;20.016;2023-02-01T22:14:57;23.70;;;11.38;;
54464;SDS011;40374;49.480;20.016;2023-02-01T22:17:24;24.92;;;12.40;;
54464;SDS011;40374;49.480;20.016;2023-02-01T22:19:51;20.65;;;8.07;;
54464;SDS011;40374;49.480;20.016;2023-02-01T22:22:18;13.70;;;6.30;;
54464;SDS011;40374;49.480;20.016;2023-02-01T22:24:46;11.25;;;7.07;;
54464;SDS011;40374;49.480;20.016;2023-02-01T22:27:13;12.63;;;6.38;;
54464;SDS011;40374;49.480;20.016;2023-02-01T22:29:41;19.90;;;9.60;;
54464;SDS011;40374;49.480;20.016;2023-02-01T22:32:09;19.23;;;6.88;;
54464;SDS011;40374;49.480;20.016;2023-02-01T22:34:39;21.67;;;9.77;;
54464;SDS011;40374;49.480;20.016;2023-02-01T22:37:06;12.43;;;7.05;;
54464;SDS011;40374;49.480;20.016;2023-02-01T22:39:33;21.42;;;8.25;;
54464;SDS011;40374;49.480;20.016;2023-02-01T22:42:01;16.35;;;7.63;;
54464;SDS011;40374;49.480;20.016;2023-02-01T22:44:29;13.48;;;6.95;;
54464;SDS011;40374;49.480;20.016;2023-02-01T22:46:57;18.60;;;8.68;;
54464;SDS011;40374;49.480;20.016;2023-02-01T22:49:24;21.00;;;10.45;;
54464;SDS011;40374;49.480;20.016;2023-02-01T22:51:51;18.33;;;7.85;;
54464;SDS011;40374;49.480;20.016;2023-02-01T22:54:19;25.05;;;7.45;;
54464;SDS011;40374;49.480;20.016;2023-02-01T22:56:49;13.63;;;5.68;;
54464;SDS011;40374;49.480;20.016;2023-02-01T22:59:16;15.57;;;6.75;;
54464;SDS011;40374;49.480;20.016;2023-02-01T23:01:43;26.10;;;8.50;;
54464;SDS011;40374;49.480;20.016;2023-02-01T23:04:12;20.92;;;8.15;;
54464;SDS011;40374;49.480;20.016;2023-02-01T23:06:40;11.75;;;5.00;;
54464;SDS011;40374;49.480;20.016;2023-02-01T23:09:12;13.43;;;6.07;;
54464;SDS011;40374;49.480;20.016;2023-02-01T23:11:39;15.52;;;6.28;;
54464;SDS011;40374;49.480;20.016;2023-02-01T23:14:08;14.73;;;7.15;;
54464;SDS011;40374;49.480;20.016;2023-02-01T23:16:35;7.90;;;4.43;;
54464;SDS011;40374;49.480;20.016;2023-02-01T23:19:03;8.45;;;4.22;;
54464;SDS011;40374;49.480;20.016;2023-02-01T23:21:30;9.15;;;3.53;;
54464;SDS011;40374;49.480;20.016;2023-02-01T23:23:58;11.43;;;3.85;;
54464;SDS011;40374;49.480;20.016;2023-02-01T23:26:27;6.82;;;3.05;;
54464;SDS011;40374;49.480;20.016;2023-02-01T23:28:55;13.40;;;4.63;;
54464;SDS011;40374;49.480;20.016;2023-02-01T23:31:24;10.52;;;4.35;;
54464;SDS011;40374;49.480;20.016;2023-02-01T23:33:52;13.77;;;3.88;;
54464;SDS011;40374;49.480;20.016;2023-02-01T23:36:21;10.70;;;3.20;;
54464;SDS011;40374;49.480;20.016;2023-02-01T23:38:49;17.20;;;6.85;;
54464;SDS011;40374;49.480;20.016;2023-02-01T23:41:18;19.40;;;7.10;;
54464;SDS011;40374;49.480;20.016;2023-02-01T23:43:45;11.93;;;5.07;;
54464;SDS011;40374;49.480;20.016;2023-02-01T23:46:29;12.75;;;4.45;;
54464;SDS011;40374;49.480;20.016;2023-02-01T23:48:59;8.98;;;3.35;;
54464;SDS011;40374;49.480;20.016;2023-02-01T23:51:26;15.43;;;4.88;;
54464;SDS011;40374;49.480;20.016;2023-02-01T23:53:54;18.08;;;6.70;;
54464;SDS011;40374;49.480;20.016;2023-02-01T23:56:25;6.57;;;2.83;;
54464;SDS011;40374;49.480;20.016;2023-02-01T23:58:54;16.13;;;7.60;;
